sensor_id;sensor_type;location;lat;lon;timestamp;temperature;humidity
21261;DHT22;10788;47.930;9.766;2022-10-16T00:01:12;12.90;99.90
21261;DHT22;10788;47.930;9.766;2022-10-16T00:03:40;12.90;99.90
21261;DHT22;10788;47.930;9.766;2022-10-16T00:06:07;12.80;99.90
21261;DHT22;10788;47.930;9.766;2022-10-16T00:08:33;12.90;99.90
21261;DHT22;10788;47.930;9.766;2022-10-16T00:13:31;12.80;99.90
21261;DHT22;10788;47.930;9.766;2022-10-16T00:15:58;12.90;99.90
21261;DHT22;10788;47.930;9.766;2022-10-16T00:18:25;12.90;99.90
21261;DHT22;10788;47.930;9.766;2022-10-16T00:20:51;12.90;99.90
21261;DHT22;10788;47.930;9.766;2022-10-16T00:23:17;12.90;99.90
21261;DHT22;10788;47.930;9.766;2022-10-16T00:25:43;12.90;99.90
21261;DHT22;10788;47.930;9.766;2022-10-16T00:28:08;12.90;99.90
21261;DHT22;10788;47.930;9.766;2022-10-16T00:30:38;12.80;99.90
21261;DHT22;10788;47.930;9.766;2022-10-16T00:33:04;12.90;99.90
21261;DHT22;10788;47.930;9.766;2022-10-16T00:35:30;12.90;99.90
21261;DHT22;10788;47.930;9.766;2022-10-16T00:37:56;12.90;99.90
21261;DHT22;10788;47.930;9.766;2022-10-16T00:40:21;12.80;99.90
21261;DHT22;10788;47.930;9.766;2022-10-16T00:42:47;12.90;99.90
21261;DHT22;10788;47.930;9.766;2022-10-16T00:45:13;12.80;99.90
21261;DHT22;10788;47.930;9.766;2022-10-16T00:47:49;12.80;99.90
21261;DHT22;10788;47.930;9.766;2022-10-16T00:50:31;12.70;99.90
21261;DHT22;10788;47.930;9.766;2022-10-16T00:52:58;12.70;99.90
21261;DHT22;10788;47.930;9.766;2022-10-16T00:55:26;12.70;99.90
21261;DHT22;10788;47.930;9.766;2022-10-16T00:57:53;12.70;99.90
21261;DHT22;10788;47.930;9.766;2022-10-16T01:00:23;12.70;99.90
21261;DHT22;10788;47.930;9.766;2022-10-16T01:05:21;12.70;99.90
21261;DHT22;10788;47.930;9.766;2022-10-16T01:10:57;12.80;99.90
21261;DHT22;10788;47.930;9.766;2022-10-16T01:13:35;12.80;99.90
21261;DHT22;10788;47.930;9.766;2022-10-16T01:16:06;12.90;99.90
21261;DHT22;10788;47.930;9.766;2022-10-16T01:18:45;12.90;99.90
21261;DHT22;10788;47.930;9.766;2022-10-16T01:21:18;13.00;99.90
21261;DHT22;10788;47.930;9.766;2022-10-16T01:37:45;13.10;99.90
21261;DHT22;10788;47.930;9.766;2022-10-16T01:40:13;13.10;99.90
21261;DHT22;10788;47.930;9.766;2022-10-16T01:42:48;13.10;99.90
21261;DHT22;10788;47.930;9.766;2022-10-16T01:45:17;13.20;99.90
21261;DHT22;10788;47.930;9.766;2022-10-16T01:47:45;13.10;99.90
21261;DHT22;10788;47.930;9.766;2022-10-16T01:50:12;13.10;99.90
21261;DHT22;10788;47.930;9.766;2022-10-16T01:52:43;13.20;99.90
21261;DHT22;10788;47.930;9.766;2022-10-16T01:55:13;13.30;99.90
21261;DHT22;10788;47.930;9.766;2022-10-16T01:57:43;13.40;99.90
21261;DHT22;10788;47.930;9.766;2022-10-16T02:00:12;13.40;99.90
21261;DHT22;10788;47.930;9.766;2022-10-16T02:02:40;13.40;99.90
21261;DHT22;10788;47.930;9.766;2022-10-16T02:05:29;13.40;99.90
21261;DHT22;10788;47.930;9.766;2022-10-16T02:07:56;13.40;99.90
21261;DHT22;10788;47.930;9.766;2022-10-16T02:10:23;13.30;99.90
21261;DHT22;10788;47.930;9.766;2022-10-16T02:12:58;13.40;99.90
21261;DHT22;10788;47.930;9.766;2022-10-16T02:15:24;13.30;99.90
21261;DHT22;10788;47.930;9.766;2022-10-16T02:17:50;13.40;99.90
21261;DHT22;10788;47.930;9.766;2022-10-16T02:20:16;13.40;99.90
21261;DHT22;10788;47.930;9.766;2022-10-16T02:22:46;13.40;99.90
21261;DHT22;10788;47.930;9.766;2022-10-16T02:25:25;13.40;99.90
21261;DHT22;10788;47.930;9.766;2022-10-16T02:27:57;13.40;99.90
21261;DHT22;10788;47.930;9.766;2022-10-16T02:30:36;13.40;99.90
21261;DHT22;10788;47.930;9.766;2022-10-16T02:33:09;13.40;99.90
21261;DHT22;10788;47.930;9.766;2022-10-16T02:35:36;13.60;99.90
21261;DHT22;10788;47.930;9.766;2022-10-16T02:38:02;13.50;99.90
21261;DHT22;10788;47.930;9.766;2022-10-16T02:40:28;13.40;99.90
21261;DHT22;10788;47.930;9.766;2022-10-16T02:42:55;13.50;99.90
21261;DHT22;10788;47.930;9.766;2022-10-16T02:45:21;13.40;99.90
21261;DHT22;10788;47.930;9.766;2022-10-16T02:47:47;13.50;99.90
21261;DHT22;10788;47.930;9.766;2022-10-16T02:50:12;13.40;99.90
21261;DHT22;10788;47.930;9.766;2022-10-16T02:52:38;13.40;99.90
21261;DHT22;10788;47.930;9.766;2022-10-16T02:55:04;13.40;99.90
21261;DHT22;10788;47.930;9.766;2022-10-16T02:57:29;13.40;99.90
21261;DHT22;10788;47.930;9.766;2022-10-16T02:59:55;13.40;99.90
21261;DHT22;10788;47.930;9.766;2022-10-16T03:02:21;13.40;99.90
21261;DHT22;10788;47.930;9.766;2022-10-16T03:04:46;13.50;99.90
21261;DHT22;10788;47.930;9.766;2022-10-16T03:07:12;13.50;99.90
21261;DHT22;10788;47.930;9.766;2022-10-16T03:09:37;13.40;99.90
21261;DHT22;10788;47.930;9.766;2022-10-16T03:12:03;13.40;99.90
21261;DHT22;10788;47.930;9.766;2022-10-16T03:14:29;13.40;99.90
21261;DHT22;10788;47.930;9.766;2022-10-16T03:16:54;13.40;99.90
21261;DHT22;10788;47.930;9.766;2022-10-16T03:19:20;13.40;99.90
21261;DHT22;10788;47.930;9.766;2022-10-16T03:21:45;13.40;99.90
21261;DHT22;10788;47.930;9.766;2022-10-16T03:24:11;13.50;99.90
21261;DHT22;10788;47.930;9.766;2022-10-16T03:26:37;13.50;99.90
21261;DHT22;10788;47.930;9.766;2022-10-16T03:29:03;13.40;99.90
21261;DHT22;10788;47.930;9.766;2022-10-16T03:31:29;13.30;99.90
21261;DHT22;10788;47.930;9.766;2022-10-16T03:33:55;13.30;99.90
21261;DHT22;10788;47.930;9.766;2022-10-16T03:36:21;13.30;99.90
21261;DHT22;10788;47.930;9.766;2022-10-16T03:38:47;13.40;99.90
21261;DHT22;10788;47.930;9.766;2022-10-16T03:41:12;13.20;99.90
21261;DHT22;10788;47.930;9.766;2022-10-16T03:43:38;13.20;99.90
21261;DHT22;10788;47.930;9.766;2022-10-16T03:46:04;13.20;99.90
21261;DHT22;10788;47.930;9.766;2022-10-16T03:48:30;13.20;99.90
21261;DHT22;10788;47.930;9.766;2022-10-16T03:50:55;13.10;99.90
21261;DHT22;10788;47.930;9.766;2022-10-16T03:53:21;13.10;99.90
21261;DHT22;10788;47.930;9.766;2022-10-16T03:55:47;13.10;99.90
21261;DHT22;10788;47.930;9.766;2022-10-16T03:58:12;13.20;99.90
21261;DHT22;10788;47.930;9.766;2022-10-16T04:00:44;12.90;99.90
21261;DHT22;10788;47.930;9.766;2022-10-16T04:03:11;13.00;99.90
21261;DHT22;10788;47.930;9.766;2022-10-16T04:05:37;13.00;99.90
21261;DHT22;10788;47.930;9.766;2022-10-16T04:08:03;12.90;99.90
21261;DHT22;10788;47.930;9.766;2022-10-16T04:10:29;12.90;99.90
21261;DHT22;10788;47.930;9.766;2022-10-16T04:12:54;12.90;99.90
21261;DHT22;10788;47.930;9.766;2022-10-16T04:15:25;12.90;99.90
21261;DHT22;10788;47.930;9.766;2022-10-16T04:17:51;12.90;99.90
21261;DHT22;10788;47.930;9.766;2022-10-16T04:20:17;12.90;99.90
21261;DHT22;10788;47.930;9.766;2022-10-16T04:22:44;12.90;99.90
21261;DHT22;10788;47.930;9.766;2022-10-16T04:25:10;13.00;99.90
21261;DHT22;10788;47.930;9.766;2022-10-16T04:27:36;12.90;99.90
21261;DHT22;10788;47.930;9.766;2022-10-16T04:30:02;12.90;99.90
21261;DHT22;10788;47.930;9.766;2022-10-16T04:32:28;12.90;99.90
21261;DHT22;10788;47.930;9.766;2022-10-16T04:34:53;12.90;99.90
21261;DHT22;10788;47.930;9.766;2022-10-16T04:37:23;12.90;99.90
21261;DHT22;10788;47.930;9.766;2022-10-16T04:39:49;12.80;99.90
21261;DHT22;10788;47.930;9.766;2022-10-16T04:42:14;12.90;99.90
21261;DHT22;10788;47.930;9.766;2022-10-16T04:44:40;12.80;99.90
21261;DHT22;10788;47.930;9.766;2022-10-16T04:47:06;12.70;99.90
21261;DHT22;10788;47.930;9.766;2022-10-16T04:49:31;12.80;99.90
21261;DHT22;10788;47.930;9.766;2022-10-16T04:51:57;12.70;99.90
21261;DHT22;10788;47.930;9.766;2022-10-16T04:54:22;12.60;99.90
21261;DHT22;10788;47.930;9.766;2022-10-16T04:56:48;12.60;99.90
21261;DHT22;10788;47.930;9.766;2022-10-16T04:59:16;12.60;99.90
21261;DHT22;10788;47.930;9.766;2022-10-16T05:01:42;12.50;99.90
21261;DHT22;10788;47.930;9.766;2022-10-16T05:04:08;12.40;99.90
21261;DHT22;10788;47.930;9.766;2022-10-16T05:06:34;12.30;99.90
21261;DHT22;10788;47.930;9.766;2022-10-16T05:08:59;12.30;99.90
21261;DHT22;10788;47.930;9.766;2022-10-16T05:11:25;12.50;99.90
21261;DHT22;10788;47.930;9.766;2022-10-16T05:13:50;12.30;99.90
21261;DHT22;10788;47.930;9.766;2022-10-16T05:16:16;12.30;99.90
21261;DHT22;10788;47.930;9.766;2022-10-16T05:18:42;12.30;99.90
21261;DHT22;10788;47.930;9.766;2022-10-16T05:21:07;12.30;99.90
21261;DHT22;10788;47.930;9.766;2022-10-16T05:23:33;12.20;99.90
21261;DHT22;10788;47.930;9.766;2022-10-16T05:25:59;12.30;99.90
21261;DHT22;10788;47.930;9.766;2022-10-16T05:28:26;12.30;99.90
21261;DHT22;10788;47.930;9.766;2022-10-16T05:30:52;12.30;99.90
21261;DHT22;10788;47.930;9.766;2022-10-16T05:33:20;12.30;99.90
21261;DHT22;10788;47.930;9.766;2022-10-16T05:35:46;12.30;99.90
21261;DHT22;10788;47.930;9.766;2022-10-16T05:38:12;12.30;99.90
21261;DHT22;10788;47.930;9.766;2022-10-16T05:40:38;12.20;99.90
21261;DHT22;10788;47.930;9.766;2022-10-16T05:43:03;12.30;99.90
21261;DHT22;10788;47.930;9.766;2022-10-16T05:45:29;12.20;99.90
21261;DHT22;10788;47.930;9.766;2022-10-16T05:47:55;12.30;99.90
21261;DHT22;10788;47.930;9.766;2022-10-16T05:50:20;12.20;99.90
21261;DHT22;10788;47.930;9.766;2022-10-16T05:52:46;12.20;99.90
21261;DHT22;10788;47.930;9.766;2022-10-16T05:55:12;12.20;99.90
21261;DHT22;10788;47.930;9.766;2022-10-16T05:57:37;12.20;99.90
21261;DHT22;10788;47.930;9.766;2022-10-16T06:00:04;12.20;99.90
21261;DHT22;10788;47.930;9.766;2022-10-16T06:02:30;12.20;99.90
21261;DHT22;10788;47.930;9.766;2022-10-16T06:04:55;12.20;99.90
21261;DHT22;10788;47.930;9.766;2022-10-16T06:07:22;12.10;99.90
21261;DHT22;10788;47.930;9.766;2022-10-16T06:09:51;12.20;99.90
21261;DHT22;10788;47.930;9.766;2022-10-16T06:12:18;12.10;99.90
21261;DHT22;10788;47.930;9.766;2022-10-16T06:14:45;12.20;99.90
21261;DHT22;10788;47.930;9.766;2022-10-16T06:17:15;12.20;99.90
21261;DHT22;10788;47.930;9.766;2022-10-16T06:19:41;12.20;99.90
21261;DHT22;10788;47.930;9.766;2022-10-16T06:22:07;12.20;99.90
21261;DHT22;10788;47.930;9.766;2022-10-16T06:24:32;12.20;99.90
21261;DHT22;10788;47.930;9.766;2022-10-16T06:26:58;12.40;99.90
21261;DHT22;10788;47.930;9.766;2022-10-16T06:29:23;12.20;99.90
21261;DHT22;10788;47.930;9.766;2022-10-16T06:31:49;12.20;99.90
21261;DHT22;10788;47.930;9.766;2022-10-16T06:34:15;12.30;99.90
21261;DHT22;10788;47.930;9.766;2022-10-16T06:36:40;12.40;99.90
21261;DHT22;10788;47.930;9.766;2022-10-16T06:39:06;12.40;99.90
21261;DHT22;10788;47.930;9.766;2022-10-16T06:41:35;12.40;99.90
21261;DHT22;10788;47.930;9.766;2022-10-16T06:44:01;12.50;99.90
21261;DHT22;10788;47.930;9.766;2022-10-16T06:46:30;12.50;99.90
21261;DHT22;10788;47.930;9.766;2022-10-16T06:48:55;12.60;99.90
21261;DHT22;10788;47.930;9.766;2022-10-16T06:51:23;12.60;99.90
21261;DHT22;10788;47.930;9.766;2022-10-16T06:53:50;12.70;99.90
21261;DHT22;10788;47.930;9.766;2022-10-16T06:56:19;12.70;99.90
21261;DHT22;10788;47.930;9.766;2022-10-16T06:58:46;12.70;99.90
21261;DHT22;10788;47.930;9.766;2022-10-16T07:01:12;12.80;99.90
21261;DHT22;10788;47.930;9.766;2022-10-16T07:03:40;12.90;99.90
21261;DHT22;10788;47.930;9.766;2022-10-16T07:06:09;13.10;99.90
21261;DHT22;10788;47.930;9.766;2022-10-16T07:08:35;13.20;99.90
21261;DHT22;10788;47.930;9.766;2022-10-16T07:11:04;13.30;99.90
21261;DHT22;10788;47.930;9.766;2022-10-16T07:13:33;13.40;99.90
21261;DHT22;10788;47.930;9.766;2022-10-16T07:16:07;13.60;99.90
21261;DHT22;10788;47.930;9.766;2022-10-16T07:18:34;14.00;99.90
21261;DHT22;10788;47.930;9.766;2022-10-16T07:21:07;14.20;99.90
21261;DHT22;10788;47.930;9.766;2022-10-16T07:23:33;14.40;99.90
21261;DHT22;10788;47.930;9.766;2022-10-16T07:25:58;14.60;99.90
21261;DHT22;10788;47.930;9.766;2022-10-16T07:28:24;14.80;99.90
21261;DHT22;10788;47.930;9.766;2022-10-16T07:30:50;14.80;99.90
21261;DHT22;10788;47.930;9.766;2022-10-16T07:33:15;14.90;99.90
21261;DHT22;10788;47.930;9.766;2022-10-16T07:35:54;15.10;99.90
21261;DHT22;10788;47.930;9.766;2022-10-16T07:38:21;15.10;99.90
21261;DHT22;10788;47.930;9.766;2022-10-16T07:40:47;15.20;99.90
21261;DHT22;10788;47.930;9.766;2022-10-16T07:43:13;15.20;99.90
21261;DHT22;10788;47.930;9.766;2022-10-16T07:45:49;15.20;99.90
21261;DHT22;10788;47.930;9.766;2022-10-16T07:48:15;15.20;99.90
21261;DHT22;10788;47.930;9.766;2022-10-16T07:50:41;15.30;99.90
21261;DHT22;10788;47.930;9.766;2022-10-16T07:53:07;15.40;99.90
21261;DHT22;10788;47.930;9.766;2022-10-16T07:55:32;15.60;99.90
21261;DHT22;10788;47.930;9.766;2022-10-16T07:57:58;15.90;99.90
21261;DHT22;10788;47.930;9.766;2022-10-16T08:00:23;16.20;99.90
21261;DHT22;10788;47.930;9.766;2022-10-16T08:02:49;16.40;99.90
21261;DHT22;10788;47.930;9.766;2022-10-16T08:05:15;16.50;99.90
21261;DHT22;10788;47.930;9.766;2022-10-16T08:07:40;16.40;99.90
21261;DHT22;10788;47.930;9.766;2022-10-16T08:10:06;16.50;99.90
21261;DHT22;10788;47.930;9.766;2022-10-16T08:12:32;16.50;99.90
21261;DHT22;10788;47.930;9.766;2022-10-16T08:14:57;16.40;99.90
21261;DHT22;10788;47.930;9.766;2022-10-16T08:17:23;16.40;99.90
21261;DHT22;10788;47.930;9.766;2022-10-16T08:19:49;16.40;99.90
21261;DHT22;10788;47.930;9.766;2022-10-16T08:22:14;16.40;99.90
21261;DHT22;10788;47.930;9.766;2022-10-16T08:24:40;16.40;99.90
21261;DHT22;10788;47.930;9.766;2022-10-16T08:27:06;16.50;99.90
21261;DHT22;10788;47.930;9.766;2022-10-16T08:29:32;16.50;99.90
21261;DHT22;10788;47.930;9.766;2022-10-16T08:31:58;16.50;99.90
21261;DHT22;10788;47.930;9.766;2022-10-16T08:34:23;16.50;99.90
21261;DHT22;10788;47.930;9.766;2022-10-16T08:36:49;16.60;99.90
21261;DHT22;10788;47.930;9.766;2022-10-16T08:39:15;16.60;99.90
21261;DHT22;10788;47.930;9.766;2022-10-16T08:45:08;16.70;99.90
21261;DHT22;10788;47.930;9.766;2022-10-16T08:48:02;16.90;99.90
21261;DHT22;10788;47.930;9.766;2022-10-16T08:50:27;17.20;99.90
21261;DHT22;10788;47.930;9.766;2022-10-16T08:52:54;17.50;99.90
21261;DHT22;10788;47.930;9.766;2022-10-16T08:57:58;18.00;99.90
21261;DHT22;10788;47.930;9.766;2022-10-16T09:00:24;18.40;99.90
21261;DHT22;10788;47.930;9.766;2022-10-16T09:06:05;18.70;99.90
21261;DHT22;10788;47.930;9.766;2022-10-16T09:16:58;18.40;99.90
21261;DHT22;10788;47.930;9.766;2022-10-16T09:19:38;18.30;99.90
21261;DHT22;10788;47.930;9.766;2022-10-16T09:22:15;18.20;99.90
21261;DHT22;10788;47.930;9.766;2022-10-16T09:24:42;18.20;99.90
21261;DHT22;10788;47.930;9.766;2022-10-16T09:27:12;18.20;99.90
21261;DHT22;10788;47.930;9.766;2022-10-16T09:29:39;18.30;99.90
21261;DHT22;10788;47.930;9.766;2022-10-16T09:32:14;18.30;99.90
21261;DHT22;10788;47.930;9.766;2022-10-16T09:34:45;18.40;99.90
21261;DHT22;10788;47.930;9.766;2022-10-16T09:37:14;18.40;99.90
21261;DHT22;10788;47.930;9.766;2022-10-16T09:39:53;18.50;99.90
21261;DHT22;10788;47.930;9.766;2022-10-16T09:42:25;18.60;99.90
21261;DHT22;10788;47.930;9.766;2022-10-16T09:44:53;18.70;99.90
21261;DHT22;10788;47.930;9.766;2022-10-16T09:47:23;18.80;99.90
21261;DHT22;10788;47.930;9.766;2022-10-16T09:52:20;19.00;99.90
21261;DHT22;10788;47.930;9.766;2022-10-16T09:55:12;19.20;99.90
21261;DHT22;10788;47.930;9.766;2022-10-16T09:57:49;19.50;99.90
21261;DHT22;10788;47.930;9.766;2022-10-16T10:00:18;20.00;99.90
21261;DHT22;10788;47.930;9.766;2022-10-16T10:02:45;20.30;99.90
21261;DHT22;10788;47.930;9.766;2022-10-16T10:05:25;20.50;99.90
21261;DHT22;10788;47.930;9.766;2022-10-16T10:08:00;20.70;99.90
21261;DHT22;10788;47.930;9.766;2022-10-16T10:10:30;20.80;99.90
21261;DHT22;10788;47.930;9.766;2022-10-16T10:12:57;20.90;99.90
21261;DHT22;10788;47.930;9.766;2022-10-16T10:15:23;21.00;99.90
21261;DHT22;10788;47.930;9.766;2022-10-16T10:17:57;21.20;99.90
21261;DHT22;10788;47.930;9.766;2022-10-16T10:22:50;21.40;99.90
21261;DHT22;10788;47.930;9.766;2022-10-16T10:28:55;21.50;99.90
21261;DHT22;10788;47.930;9.766;2022-10-16T10:31:38;21.50;99.90
21261;DHT22;10788;47.930;9.766;2022-10-16T10:36:59;21.40;99.90
21261;DHT22;10788;47.930;9.766;2022-10-16T10:39:35;21.40;99.90
21261;DHT22;10788;47.930;9.766;2022-10-16T10:42:25;21.40;99.90
21261;DHT22;10788;47.930;9.766;2022-10-16T10:45:20;21.50;99.90
21261;DHT22;10788;47.930;9.766;2022-10-16T10:48:12;21.60;99.90
21261;DHT22;10788;47.930;9.766;2022-10-16T10:50:45;21.60;99.90
21261;DHT22;10788;47.930;9.766;2022-10-16T10:58:31;21.70;99.90
21261;DHT22;10788;47.930;9.766;2022-10-16T11:11:43;21.50;99.90
21261;DHT22;10788;47.930;9.766;2022-10-16T11:14:35;21.60;99.90
21261;DHT22;10788;47.930;9.766;2022-10-16T11:17:10;21.60;99.90
21261;DHT22;10788;47.930;9.766;2022-10-16T11:19:51;21.60;99.90
21261;DHT22;10788;47.930;9.766;2022-10-16T11:22:42;21.60;99.90
21261;DHT22;10788;47.930;9.766;2022-10-16T11:25:38;21.60;99.90
21261;DHT22;10788;47.930;9.766;2022-10-16T11:31:15;21.60;99.90
21261;DHT22;10788;47.930;9.766;2022-10-16T11:33:45;21.60;99.90
21261;DHT22;10788;47.930;9.766;2022-10-16T11:38:43;21.60;99.90
21261;DHT22;10788;47.930;9.766;2022-10-16T11:41:24;21.70;99.90
21261;DHT22;10788;47.930;9.766;2022-10-16T11:46:46;21.70;99.90
21261;DHT22;10788;47.930;9.766;2022-10-16T11:49:24;21.70;99.90
21261;DHT22;10788;47.930;9.766;2022-10-16T11:57:19;21.80;99.90
21261;DHT22;10788;47.930;9.766;2022-10-16T12:00:00;21.90;99.90
21261;DHT22;10788;47.930;9.766;2022-10-16T12:08:11;22.00;99.90
21261;DHT22;10788;47.930;9.766;2022-10-16T12:10:38;22.00;99.90
21261;DHT22;10788;47.930;9.766;2022-10-16T12:15:50;22.00;99.90
21261;DHT22;10788;47.930;9.766;2022-10-16T12:18:22;22.10;99.90
21261;DHT22;10788;47.930;9.766;2022-10-16T12:20:55;22.10;99.90
21261;DHT22;10788;47.930;9.766;2022-10-16T12:23:30;22.10;99.90
21261;DHT22;10788;47.930;9.766;2022-10-16T12:25:58;22.10;99.90
21261;DHT22;10788;47.930;9.766;2022-10-16T12:28:36;22.10;99.90
21261;DHT22;10788;47.930;9.766;2022-10-16T12:31:09;22.20;99.90
21261;DHT22;10788;47.930;9.766;2022-10-16T12:33:42;22.10;99.90
21261;DHT22;10788;47.930;9.766;2022-10-16T12:36:26;22.20;99.90
21261;DHT22;10788;47.930;9.766;2022-10-16T12:38:52;22.10;99.90
21261;DHT22;10788;47.930;9.766;2022-10-16T12:41:33;22.10;99.90
21261;DHT22;10788;47.930;9.766;2022-10-16T12:44:00;22.20;99.90
21261;DHT22;10788;47.930;9.766;2022-10-16T12:51:42;22.10;99.90
21261;DHT22;10788;47.930;9.766;2022-10-16T12:54:22;22.10;99.90
21261;DHT22;10788;47.930;9.766;2022-10-16T12:59:50;22.10;99.90
21261;DHT22;10788;47.930;9.766;2022-10-16T13:02:38;22.00;99.90
21261;DHT22;10788;47.930;9.766;2022-10-16T13:08:33;21.80;99.90
21261;DHT22;10788;47.930;9.766;2022-10-16T13:22:24;21.80;99.90
21261;DHT22;10788;47.930;9.766;2022-10-16T13:30:29;21.90;99.90
21261;DHT22;10788;47.930;9.766;2022-10-16T13:33:05;21.90;99.90
21261;DHT22;10788;47.930;9.766;2022-10-16T13:35:34;22.00;99.90
21261;DHT22;10788;47.930;9.766;2022-10-16T13:38:15;22.00;99.90
21261;DHT22;10788;47.930;9.766;2022-10-16T13:48:41;21.90;99.90
21261;DHT22;10788;47.930;9.766;2022-10-16T13:51:15;22.00;99.90
21261;DHT22;10788;47.930;9.766;2022-10-16T13:53:41;21.90;99.90
21261;DHT22;10788;47.930;9.766;2022-10-16T13:56:19;21.90;99.90
21261;DHT22;10788;47.930;9.766;2022-10-16T13:58:46;22.00;99.90
21261;DHT22;10788;47.930;9.766;2022-10-16T14:01:23;22.00;99.90
21261;DHT22;10788;47.930;9.766;2022-10-16T14:03:51;22.00;99.90
21261;DHT22;10788;47.930;9.766;2022-10-16T14:06:20;22.00;99.90
21261;DHT22;10788;47.930;9.766;2022-10-16T14:09:01;22.00;99.90
21261;DHT22;10788;47.930;9.766;2022-10-16T14:11:29;22.00;99.90
21261;DHT22;10788;47.930;9.766;2022-10-16T14:13:55;22.00;99.90
21261;DHT22;10788;47.930;9.766;2022-10-16T14:16:27;22.00;99.90
21261;DHT22;10788;47.930;9.766;2022-10-16T14:19:04;22.00;99.90
21261;DHT22;10788;47.930;9.766;2022-10-16T14:21:33;22.00;99.90
21261;DHT22;10788;47.930;9.766;2022-10-16T14:23:59;21.90;99.90
21261;DHT22;10788;47.930;9.766;2022-10-16T14:26:28;21.90;99.90
21261;DHT22;10788;47.930;9.766;2022-10-16T14:29:17;21.80;99.90
21261;DHT22;10788;47.930;9.766;2022-10-16T14:31:43;21.80;99.90
21261;DHT22;10788;47.930;9.766;2022-10-16T14:34:38;21.70;99.90
21261;DHT22;10788;47.930;9.766;2022-10-16T14:37:28;21.70;99.90
21261;DHT22;10788;47.930;9.766;2022-10-16T14:39:55;21.70;99.90
21261;DHT22;10788;47.930;9.766;2022-10-16T14:42:23;21.70;99.90
21261;DHT22;10788;47.930;9.766;2022-10-16T14:44:51;21.60;99.90
21261;DHT22;10788;47.930;9.766;2022-10-16T14:47:24;21.60;99.90
21261;DHT22;10788;47.930;9.766;2022-10-16T14:49:53;21.70;99.90
21261;DHT22;10788;47.930;9.766;2022-10-16T14:52:20;21.60;99.90
21261;DHT22;10788;47.930;9.766;2022-10-16T14:54:49;21.60;99.90
21261;DHT22;10788;47.930;9.766;2022-10-16T14:57:21;21.60;99.90
21261;DHT22;10788;47.930;9.766;2022-10-16T14:59:48;21.50;99.90
21261;DHT22;10788;47.930;9.766;2022-10-16T15:04:50;21.40;99.90
21261;DHT22;10788;47.930;9.766;2022-10-16T15:07:16;21.30;99.90
21261;DHT22;10788;47.930;9.766;2022-10-16T15:09:42;21.30;99.90
21261;DHT22;10788;47.930;9.766;2022-10-16T15:12:08;21.20;99.90
21261;DHT22;10788;47.930;9.766;2022-10-16T15:14:33;21.10;99.90
21261;DHT22;10788;47.930;9.766;2022-10-16T15:16:59;21.10;99.90
21261;DHT22;10788;47.930;9.766;2022-10-16T15:19:25;21.10;99.90
21261;DHT22;10788;47.930;9.766;2022-10-16T15:21:51;21.00;99.90
21261;DHT22;10788;47.930;9.766;2022-10-16T15:24:18;21.00;99.90
21261;DHT22;10788;47.930;9.766;2022-10-16T15:26:43;20.90;99.90
21261;DHT22;10788;47.930;9.766;2022-10-16T15:29:11;20.90;99.90
21261;DHT22;10788;47.930;9.766;2022-10-16T15:31:37;20.80;99.90
21261;DHT22;10788;47.930;9.766;2022-10-16T15:34:03;20.80;99.90
21261;DHT22;10788;47.930;9.766;2022-10-16T15:36:33;20.70;99.90
21261;DHT22;10788;47.930;9.766;2022-10-16T15:39:18;20.60;99.90
21261;DHT22;10788;47.930;9.766;2022-10-16T15:41:45;20.60;99.90
21261;DHT22;10788;47.930;9.766;2022-10-16T15:44:16;20.50;99.90
21261;DHT22;10788;47.930;9.766;2022-10-16T15:46:42;20.40;99.90
21261;DHT22;10788;47.930;9.766;2022-10-16T15:49:08;20.40;99.90
21261;DHT22;10788;47.930;9.766;2022-10-16T15:51:38;20.30;99.90
21261;DHT22;10788;47.930;9.766;2022-10-16T15:54:04;20.20;99.90
21261;DHT22;10788;47.930;9.766;2022-10-16T15:56:30;20.20;99.90
21261;DHT22;10788;47.930;9.766;2022-10-16T15:58:58;20.10;99.90
21261;DHT22;10788;47.930;9.766;2022-10-16T16:01:24;20.00;99.90
21261;DHT22;10788;47.930;9.766;2022-10-16T16:03:53;20.00;99.90
21261;DHT22;10788;47.930;9.766;2022-10-16T16:06:19;19.90;99.90
21261;DHT22;10788;47.930;9.766;2022-10-16T16:08:45;19.80;99.90
21261;DHT22;10788;47.930;9.766;2022-10-16T16:11:12;19.80;99.90
21261;DHT22;10788;47.930;9.766;2022-10-16T16:13:39;19.70;99.90
21261;DHT22;10788;47.930;9.766;2022-10-16T16:16:11;19.60;99.90
21261;DHT22;10788;47.930;9.766;2022-10-16T16:18:37;19.40;99.90
21261;DHT22;10788;47.930;9.766;2022-10-16T16:21:03;19.20;99.90
21261;DHT22;10788;47.930;9.766;2022-10-16T16:23:29;19.10;99.90
21261;DHT22;10788;47.930;9.766;2022-10-16T16:28:35;18.90;99.90
21261;DHT22;10788;47.930;9.766;2022-10-16T16:31:01;18.90;99.90
21261;DHT22;10788;47.930;9.766;2022-10-16T16:33:26;18.80;99.90
21261;DHT22;10788;47.930;9.766;2022-10-16T16:35:59;18.70;99.90
21261;DHT22;10788;47.930;9.766;2022-10-16T16:38:25;18.60;99.90
21261;DHT22;10788;47.930;9.766;2022-10-16T16:40:51;18.50;99.90
21261;DHT22;10788;47.930;9.766;2022-10-16T16:43:17;18.40;99.90
21261;DHT22;10788;47.930;9.766;2022-10-16T16:45:43;18.30;99.90
21261;DHT22;10788;47.930;9.766;2022-10-16T16:48:09;18.20;99.90
21261;DHT22;10788;47.930;9.766;2022-10-16T16:50:38;18.10;99.90
21261;DHT22;10788;47.930;9.766;2022-10-16T16:53:03;18.00;99.90
21261;DHT22;10788;47.930;9.766;2022-10-16T16:55:29;18.00;99.90
21261;DHT22;10788;47.930;9.766;2022-10-16T16:57:55;17.90;99.90
21261;DHT22;10788;47.930;9.766;2022-10-16T17:00:22;17.80;99.90
21261;DHT22;10788;47.930;9.766;2022-10-16T17:02:49;17.70;99.90
21261;DHT22;10788;47.930;9.766;2022-10-16T17:05:15;17.70;99.90
21261;DHT22;10788;47.930;9.766;2022-10-16T17:07:41;17.60;99.90
21261;DHT22;10788;47.930;9.766;2022-10-16T17:10:07;17.50;99.90
21261;DHT22;10788;47.930;9.766;2022-10-16T17:12:33;17.40;99.90
21261;DHT22;10788;47.930;9.766;2022-10-16T17:14:59;17.30;99.90
21261;DHT22;10788;47.930;9.766;2022-10-16T17:17:24;17.30;99.90
21261;DHT22;10788;47.930;9.766;2022-10-16T17:19:51;17.20;99.90
21261;DHT22;10788;47.930;9.766;2022-10-16T17:22:17;17.10;99.90
21261;DHT22;10788;47.930;9.766;2022-10-16T17:24:43;17.00;99.90
21261;DHT22;10788;47.930;9.766;2022-10-16T17:27:09;17.00;99.90
21261;DHT22;10788;47.930;9.766;2022-10-16T17:29:36;16.90;99.90
21261;DHT22;10788;47.930;9.766;2022-10-16T17:32:02;16.90;99.90
21261;DHT22;10788;47.930;9.766;2022-10-16T17:34:28;16.90;99.90
21261;DHT22;10788;47.930;9.766;2022-10-16T17:36:54;16.80;99.90
21261;DHT22;10788;47.930;9.766;2022-10-16T17:39:19;16.70;99.90
21261;DHT22;10788;47.930;9.766;2022-10-16T17:41:47;16.60;99.90
21261;DHT22;10788;47.930;9.766;2022-10-16T17:44:13;16.60;99.90
21261;DHT22;10788;47.930;9.766;2022-10-16T17:46:46;16.50;99.90
21261;DHT22;10788;47.930;9.766;2022-10-16T17:49:17;16.50;99.90
21261;DHT22;10788;47.930;9.766;2022-10-16T17:51:43;16.40;99.90